Floradale, Pennsylvania
Current Conditions -  °F | °C
As of 8:53 PM on Friday 28 Nov 2014 (Local Time) from KRYT Reporting Station
Clear Clear  
Wind Chill: 26°   Ceiling: Unl
Heat Index: 26°   Visibility: 10mi
Dew Point: 15°   Wind: 0mph
Humidity: 63%   Direction: NA
Pressure: 30.23"   Gusts: NA
Location:  39.942°N, 77.3061°W
Report Text: KRYT 290153Z AUTO 00000KT 10SM CLR M03/M09 A3023 RMK AO2 SLP255 T10331094 $
Loading
Personal Weather Stations






























Interactive Weather Map New forecast layout! Learn more

10-Day Weather Forecast

Advertisements
Track Severe Weather on mobile